Time;durP1;ratioP1;P1;durP2;ratioP2;P2;SDS_P1;SDS_P2;PMS_P1;PMS_P2;Temp;Humidity;BMP_temperature;BMP_pressure;BME280_temperature;BME280_humidity;BME280_pressure;Samples;Min_cycle;Max_cycle;Signal;HPM_P1;HPM_P2
2023/03/02 00:02:25;;;;;;;19.30;11.50;;;;;;;-1.36;73.65;100536.56;4902304;28;20044;-64
2023/03/02 00:04:59;;;;;;;14.55;9.07;;;;;;;-1.32;73.89;100530.75;4901767;28;20407;-65
2023/03/02 00:07:34;;;;;;;20.30;10.80;;;;;;;-1.25;73.95;100533.53;4889762;28;20048;-63
2023/03/02 00:10:06;;;;;;;16.40;10.00;;;;;;;-1.19;73.79;100526.94;4903527;28;20048;-63
2023/03/02 00:12:38;;;;;;;16.92;9.48;;;;;;;-1.16;73.35;100529.59;4926551;28;20548;-64
2023/03/02 00:15:11;;;;;;;15.98;8.63;;;;;;;-1.17;72.93;100511.59;4896470;28;20073;-64
2023/03/02 00:17:42;;;;;;;15.82;9.32;;;;;;;-1.05;72.58;100527.38;4906189;28;20044;-65
2023/03/02 00:20:14;;;;;;;16.30;9.63;;;;;;;-1.04;72.09;100524.03;4904949;28;20075;-64
2023/03/02 00:22:46;;;;;;;14.40;8.50;;;;;;;-1.40;71.89;100457.84;4905233;28;20122;-66
2023/03/02 00:25:17;;;;;;;11.45;7.68;;;;;;;-1.03;72.13;100520.63;4898753;28;20041;-67
2023/03/02 00:27:48;;;;;;;11.48;7.45;;;;;;;-0.89;72.20;100531.38;4898191;28;20140;-64
2023/03/02 00:30:20;;;;;;;13.85;7.95;;;;;;;-0.80;71.66;100517.97;4935681;28;20448;-64
2023/03/02 00:32:50;;;;;;;13.90;7.18;;;;;;;-0.84;71.17;100521.28;4926862;28;20054;-67
2023/03/02 00:35:21;;;;;;;13.13;8.02;;;;;;;-0.72;70.74;100521.69;4889257;28;20136;-65
2023/03/02 00:37:51;;;;;;;11.50;8.07;;;;;;;-0.67;70.88;100526.16;4884818;28;20056;-65
2023/03/02 00:40:22;;;;;;;17.50;8.90;;;;;;;-0.63;71.20;100491.19;4905321;28;20175;-65
2023/03/02 00:42:52;;;;;;;12.98;8.30;;;;;;;-0.06;70.59;100516.94;4911629;28;20072;-65
2023/03/02 00:45:24;;;;;;;12.57;7.50;;;;;;;0.20;69.90;100511.69;4904415;28;20708;-62
2023/03/02 00:47:55;;;;;;;13.35;7.95;;;;;;;0.32;68.85;100509.50;4891682;28;20073;-66
2023/03/02 00:50:26;;;;;;;14.07;7.20;;;;;;;0.50;68.61;100508.28;4892198;28;20531;-63
2023/03/02 00:52:56;;;;;;;16.60;7.53;;;;;;;0.73;67.80;100502.09;4892222;28;20144;-64
2023/03/02 00:55:27;;;;;;;13.13;7.80;;;;;;;0.74;66.95;100508.09;4892048;28;20044;-64
2023/03/02 00:57:57;;;;;;;13.88;8.20;;;;;;;0.75;66.56;100508.16;4911664;28;20110;-64
2023/03/02 01:00:29;;;;;;;12.25;7.07;;;;;;;1.02;66.23;100501.97;4874328;28;20065;-64
2023/03/02 01:02:59;;;;;;;14.70;7.90;;;;;;;1.01;65.24;100505.41;4893582;28;20053;-65
2023/03/02 01:05:30;;;;;;;12.07;7.47;;;;;;;1.27;65.64;100501.78;4896845;28;20143;-67
2023/03/02 01:08:07;;;;;;;12.15;7.35;;;;;;;1.62;64.06;100498.31;4918054;28;20399;-65
2023/03/02 01:10:38;;;;;;;11.07;6.80;;;;;;;1.53;63.82;100477.50;4902486;28;20899;-66
2023/03/02 01:13:09;;;;;;;11.57;7.03;;;;;;;1.64;63.50;100487.22;4910210;28;20967;-66
2023/03/02 01:15:41;;;;;;;13.15;6.97;;;;;;;1.60;61.99;100476.78;4909949;28;20049;-67
2023/03/02 01:18:12;;;;;;;9.82;6.65;;;;;;;1.59;61.55;100483.66;4904281;28;20057;-66
2023/03/02 01:20:43;;;;;;;10.15;6.57;;;;;;;1.43;61.52;100476.41;4904338;28;20378;-66
2023/03/02 01:23:13;;;;;;;13.95;7.60;;;;;;;1.50;61.45;100488.59;4903639;28;20057;-67
2023/03/02 01:25:44;;;;;;;11.07;7.18;;;;;;;1.54;61.44;100490.41;4910490;28;20048;-66
2023/03/02 01:28:15;;;;;;;12.15;7.32;;;;;;;1.56;61.72;100488.75;4911126;28;20086;-67
2023/03/02 01:30:48;;;;;;;11.10;6.47;;;;;;;1.57;61.79;100490.47;4907683;28;20052;-67
2023/03/02 01:33:18;;;;;;;11.55;6.72;;;;;;;1.62;61.17;100483.75;4902205;28;20049;-65
2023/03/02 01:35:49;;;;;;;9.02;6.00;;;;;;;1.51;60.47;100493.78;4908269;28;20185;-65
2023/03/02 01:38:20;;;;;;;11.63;6.40;;;;;;;1.57;60.79;100482.75;4903425;28;20056;-65
2023/03/02 01:40:50;;;;;;;11.13;6.13;;;;;;;1.62;60.76;100488.91;4902299;28;20056;-65
2023/03/02 01:43:21;;;;;;;10.23;5.85;;;;;;;1.59;60.51;100478.50;4909127;28;20045;-65
2023/03/02 01:45:55;;;;;;;8.95;5.80;;;;;;;1.62;60.71;100473.44;4898872;28;21290;-65
2023/03/02 01:48:30;;;;;;;11.13;6.03;;;;;;;1.69;60.58;100470.16;4902967;28;20122;-65
2023/03/02 01:51:03;;;;;;;10.43;5.95;;;;;;;1.70;59.72;100477.06;4899395;28;20052;-64
2023/03/02 01:53:35;;;;;;;11.48;5.68;;;;;;;1.92;59.68;100477.53;4909100;28;20057;-64
2023/03/02 01:56:07;;;;;;;9.98;4.95;;;;;;;1.82;59.28;100480.72;4905170;28;20067;-65
2023/03/02 01:58:38;;;;;;;8.73;5.80;;;;;;;1.90;59.33;100471.50;4903971;28;20069;-65
2023/03/02 02:01:14;;;;;;;11.43;5.63;;;;;;;1.84;58.47;100479.06;4914596;28;21232;-65
2023/03/02 02:03:47;;;;;;;9.80;5.43;;;;;;;1.83;58.87;100461.88;4906578;28;20466;-66
2023/03/02 02:06:23;;;;;;;7.85;5.25;;;;;;;2.08;59.20;100479.63;4908809;28;20046;-64
2023/03/02 02:08:56;;;;;;;9.50;5.28;;;;;;;2.19;58.01;100481.53;4905663;28;20052;-65
2023/03/02 02:11:27;;;;;;;9.82;5.38;;;;;;;2.01;57.94;100446.81;4910285;28;20403;-64
2023/03/02 02:13:59;;;;;;;12.27;5.40;;;;;;;2.15;57.92;100471.19;4899413;28;20045;-67
2023/03/02 02:16:35;;;;;;;7.32;4.65;;;;;;;2.06;56.98;100464.94;4905458;28;20526;-65
2023/03/02 02:19:16;;;;;;;8.30;5.22;;;;;;;2.10;56.80;100459.91;4910878;28;20131;-66
2023/03/02 02:21:46;;;;;;;7.13;4.10;;;;;;;2.37;56.23;100456.13;4893882;28;20070;-67
2023/03/02 02:24:22;;;;;;;6.15;4.00;;;;;;;2.49;54.60;100466.69;4909291;28;20475;-68
2023/03/02 02:26:56;;;;;;;9.38;4.30;;;;;;;2.71;54.33;100451.63;4896092;28;20107;-66
2023/03/02 02:29:31;;;;;;;7.00;3.08;;;;;;;2.87;53.45;100432.13;4908637;28;20049;-68
2023/03/02 02:32:08;;;;;;;8.32;3.63;;;;;;;3.06;52.31;100435.91;4897527;28;20086;-66
2023/03/02 02:34:45;;;;;;;8.10;4.20;;;;;;;3.37;52.71;100435.56;4896943;28;20203;-68
2023/03/02 02:37:20;;;;;;;8.85;3.45;;;;;;;3.80;51.58;100436.19;4910921;28;20071;-66
2023/03/02 02:39:52;;;;;;;5.85;3.22;;;;;;;4.10;49.97;100424.50;4889247;28;20099;-65
2023/03/02 02:42:28;;;;;;;3.97;2.80;;;;;;;4.26;48.30;100408.31;4908837;28;20063;-66
2023/03/02 02:45:01;;;;;;;5.60;3.05;;;;;;;4.54;46.83;100418.97;4904846;28;20122;-67
2023/03/02 02:47:32;;;;;;;5.90;3.00;;;;;;;4.00;46.76;100340.78;4910304;28;20098;-68
2023/03/02 02:50:03;;;;;;;4.95;2.83;;;;;;;4.42;47.10;100406.78;4911818;28;20057;-67
2023/03/02 02:52:33;;;;;;;4.93;2.97;;;;;;;4.20;46.27;100405.66;4903199;28;20052;-69
2023/03/02 02:55:09;;;;;;;5.38;2.63;;;;;;;4.01;46.73;100408.88;4909482;28;20052;-66
2023/03/02 02:57:43;;;;;;;7.15;3.28;;;;;;;3.83;45.98;100400.03;4871091;28;20065;-65
2023/03/02 03:00:21;;;;;;;7.80;4.05;;;;;;;3.81;47.00;100373.28;4927221;28;20154;-66
2023/03/02 03:02:59;;;;;;;5.35;3.47;;;;;;;3.99;47.04;100376.94;4895582;28;20051;-66
2023/03/02 03:05:29;;;;;;;4.15;2.90;;;;;;;3.94;46.15;100391.53;4899576;28;20062;-65
2023/03/02 03:08:11;;;;;;;5.05;2.67;;;;;;;3.65;46.18;100394.63;4909056;28;20083;-66
2023/03/02 03:10:43;;;;;;;4.32;2.83;;;;;;;3.37;45.98;100389.06;4894516;28;20048;-67
2023/03/02 03:13:15;;;;;;;7.18;3.03;;;;;;;3.13;47.01;100357.69;4910333;28;20059;-70
2023/03/02 03:15:46;;;;;;;4.75;2.90;;;;;;;3.11;46.66;100367.13;4921143;28;20065;-66
2023/03/02 03:18:24;;;;;;;4.55;2.83;;;;;;;2.93;47.18;100371.16;4915146;28;20055;-70
2023/03/02 03:21:28;;;;;;;5.30;3.17;;;;;;;2.99;47.58;100366.06;4899917;28;21687;-66
2023/03/02 03:26:56;;;;;;;6.40;3.22;;;;;;;3.19;49.39;100347.44;4892948;28;20147;-67
2023/03/02 03:29:30;;;;;;;5.72;3.05;;;;;;;3.46;48.75;100357.31;4901951;28;20631;-65
2023/03/02 03:32:02;;;;;;;4.95;3.20;;;;;;;3.36;47.47;100345.13;4905571;28;20059;-70
2023/03/02 03:34:39;;;;;;;7.22;3.58;;;;;;;3.20;47.73;100356.94;4908192;28;20052;-70
2023/03/02 03:37:14;;;;;;;5.43;3.45;;;;;;;2.81;48.74;100314.19;4889093;28;20056;-67
2023/03/02 03:39:45;;;;;;;5.57;3.50;;;;;;;2.92;49.24;100338.47;4936886;28;20048;-71
2023/03/02 03:42:15;;;;;;;5.60;3.58;;;;;;;2.79;49.19;100336.50;4907192;28;20044;-70
2023/03/02 03:44:47;;;;;;;7.00;3.28;;;;;;;2.72;49.28;100334.66;4904998;28;20056;-68
2023/03/02 03:47:18;;;;;;;41.22;17.48;;;;;;;2.75;49.59;100327.00;4904325;28;20061;-65
2023/03/02 03:49:49;;;;;;;15.45;11.50;;;;;;;2.79;50.13;100336.50;4907398;28;20479;-67
2023/03/02 03:52:29;;;;;;;14.20;6.78;;;;;;;2.80;50.64;100333.97;4900850;28;20060;-67
2023/03/02 03:55:00;;;;;;;6.40;4.50;;;;;;;2.88;49.84;100326.34;4913558;28;20455;-70
2023/03/02 03:57:30;;;;;;;10.50;5.05;;;;;;;2.57;49.63;100315.53;4898903;28;20049;-65
2023/03/02 04:00:04;;;;;;;6.15;3.80;;;;;;;2.31;50.73;100254.91;4908692;28;20050;-67
2023/03/02 04:02:35;;;;;;;8.70;4.28;;;;;;;2.93;50.62;100309.22;4914989;28;20048;-68
2023/03/02 04:05:07;;;;;;;8.13;4.22;;;;;;;3.11;49.75;100320.66;4913354;28;20105;-75
2023/03/02 04:07:40;;;;;;;9.45;4.60;;;;;;;3.02;49.90;100301.63;4900391;28;20060;-70
2023/03/02 04:10:12;;;;;;;7.97;4.30;;;;;;;3.20;50.17;100300.16;4896809;28;20796;-68
2023/03/02 04:12:48;;;;;;;7.03;4.30;;;;;;;3.23;49.60;100307.94;4906568;28;20048;-75
2023/03/02 04:15:21;;;;;;;6.97;4.20;;;;;;;3.39;49.83;100306.41;4902097;28;20095;-72
2023/03/02 04:17:51;;;;;;;7.43;4.22;;;;;;;3.34;49.57;100302.91;4903228;28;20059;-74
2023/03/02 04:20:23;;;;;;;6.07;3.95;;;;;;;3.25;49.69;100306.25;4903447;28;20076;-70
2023/03/02 04:22:55;;;;;;;7.20;3.88;;;;;;;3.41;50.19;100303.00;4923197;28;20048;-66
2023/03/02 04:25:28;;;;;;;7.07;3.70;;;;;;;3.64;49.71;100305.91;4918442;28;20475;-71
2023/03/02 04:27:58;;;;;;;8.90;4.53;;;;;;;3.95;49.41;100297.63;4895006;28;20065;-67
2023/03/02 04:30:31;;;;;;;5.15;3.40;;;;;;;3.87;48.43;100288.06;4904586;28;20491;-72
2023/03/02 04:33:02;;;;;;;6.20;3.60;;;;;;;3.84;49.07;100288.06;4911398;28;20140;-66
2023/03/02 04:35:33;;;;;;;7.15;3.60;;;;;;;4.05;48.65;100281.38;4904356;28;20590;-71
2023/03/02 04:38:03;;;;;;;5.05;3.53;;;;;;;4.39;48.62;100281.69;4899197;28;20071;-71
2023/03/02 04:40:34;;;;;;;5.68;3.47;;;;;;;4.72;48.31;100273.34;4901713;28;20052;-67
2023/03/02 04:43:15;;;;;;;7.47;3.50;;;;;;;4.65;47.44;100280.19;4909615;28;20105;-69
2023/03/02 04:45:47;;;;;;;7.85;4.22;;;;;;;4.43;46.68;100283.44;4899412;28;20437;-67
2023/03/02 04:48:22;;;;;;;7.35;5.00;;;;;;;4.23;47.60;100270.34;4913430;28;20098;-63
2023/03/02 04:50:59;;;;;;;5.72;3.40;;;;;;;3.83;47.84;100268.19;4899340;28;20052;-75
2023/03/02 04:53:30;;;;;;;4.22;3.00;;;;;;;3.75;48.33;100267.25;4899704;28;20060;-73
2023/03/02 04:56:00;;;;;;;5.47;2.80;;;;;;;3.77;48.08;100265.56;4903663;28;20482;-69
2023/03/02 04:58:31;;;;;;;4.53;2.85;;;;;;;3.94;48.48;100262.28;4902797;28;20400;-70
2023/03/02 05:01:03;;;;;;;6.75;3.05;;;;;;;3.92;47.72;100259.69;4899938;28;20052;-71
2023/03/02 05:03:34;;;;;;;6.72;3.10;;;;;;;3.78;47.17;100253.50;4900700;28;20060;-71
2023/03/02 05:06:05;;;;;;;4.38;3.25;;;;;;;3.66;47.30;100257.66;4903383;28;20079;-65
2023/03/02 05:08:35;;;;;;;6.50;3.42;;;;;;;3.51;48.11;100256.63;4899678;28;20048;-68
2023/03/02 05:11:07;;;;;;;6.43;3.17;;;;;;;3.16;48.33;100183.03;4899202;28;20052;-74
2023/03/02 05:13:37;;;;;;;13.02;6.72;;;;;;;3.48;49.14;100246.28;4918029;28;20050;-67
2023/03/02 05:16:10;;;;;;;14.90;8.65;;;;;;;3.39;49.25;100247.00;4904501;28;20066;-67
2023/03/02 05:18:40;;;;;;;5.07;3.47;;;;;;;3.29;49.16;100250.31;4899203;28;20079;-67
2023/03/02 05:21:11;;;;;;;5.22;3.33;;;;;;;3.22;48.57;100260.59;4896816;28;20565;-66
2023/03/02 05:23:42;;;;;;;6.97;3.80;;;;;;;3.06;48.86;100252.59;4901937;28;20052;-67
2023/03/02 05:26:13;;;;;;;5.20;3.58;;;;;;;3.20;49.57;100261.41;4895949;28;20159;-74
2023/03/02 05:28:44;;;;;;;8.52;3.08;;;;;;;2.86;49.03;100244.56;4900826;28;20080;-72
2023/03/02 05:31:20;;;;;;;6.90;3.65;;;;;;;2.75;49.43;100257.31;4900158;28;20040;-67
2023/03/02 05:33:51;;;;;;;4.82;3.28;;;;;;;2.66;50.45;100259.75;4909932;28;20056;-68
2023/03/02 05:36:22;;;;;;;7.15;3.22;;;;;;;2.52;50.08;100255.25;4911379;28;21228;-70
2023/03/02 05:38:52;;;;;;;5.82;3.28;;;;;;;2.43;49.92;100265.41;4903855;28;20070;-70
2023/03/02 05:41:23;;;;;;;6.75;2.92;;;;;;;2.30;49.74;100259.19;4911423;28;20052;-71
2023/03/02 05:43:54;;;;;;;6.20;3.08;;;;;;;2.23;50.54;100267.66;4908557;28;20057;-69
2023/03/02 05:46:27;;;;;;;5.90;3.72;;;;;;;2.16;51.61;100251.19;4911526;28;20056;-68
2023/03/02 05:48:57;;;;;;;6.03;3.88;;;;;;;2.19;51.11;100254.69;4905919;28;20068;-65
2023/03/02 05:51:28;;;;;;;4.82;2.70;;;;;;;2.26;49.71;100259.09;4909751;28;20128;-69
2023/03/02 05:53:59;;;;;;;4.80;2.45;;;;;;;2.33;48.62;100263.53;4907579;28;20049;-68
2023/03/02 05:56:29;;;;;;;4.25;2.80;;;;;;;2.49;49.05;100275.81;4907513;28;20052;-72
2023/03/02 05:59:01;;;;;;;5.85;3.50;;;;;;;2.42;49.48;100274.00;4904897;28;20513;-74
2023/03/02 06:01:34;;;;;;;7.70;4.10;;;;;;;2.56;50.11;100272.50;4911679;28;20072;-71
2023/03/02 06:04:04;;;;;;;10.57;4.55;;;;;;;2.50;49.46;100267.25;4907388;28;20136;-71
2023/03/02 06:06:35;;;;;;;6.20;4.43;;;;;;;2.48;48.78;100284.41;4909357;28;20131;-70
2023/03/02 06:09:06;;;;;;;5.97;2.83;;;;;;;2.51;48.61;100278.44;4906375;28;20557;-70
2023/03/02 06:11:36;;;;;;;5.18;3.65;;;;;;;2.47;48.20;100269.78;4909135;28;20059;-72
2023/03/02 06:14:07;;;;;;;5.60;3.17;;;;;;;2.66;48.36;100267.50;4909307;28;20084;-70
2023/03/02 06:16:47;;;;;;;7.88;3.00;;;;;;;2.84;47.89;100272.94;4905468;28;20061;-73
2023/03/02 06:19:18;;;;;;;5.03;3.40;;;;;;;3.05;47.84;100281.84;4906206;28;20602;-64
2023/03/02 06:21:49;;;;;;;7.03;4.03;;;;;;;3.15;47.13;100275.97;4910016;28;20077;-67
2023/03/02 06:24:20;;;;;;;5.05;2.90;;;;;;;2.79;47.22;100238.44;4901851;28;20060;-73
2023/03/02 06:26:50;;;;;;;7.35;3.25;;;;;;;2.98;45.81;100276.59;4909091;28;20052;-68
2023/03/02 06:29:21;;;;;;;10.25;3.55;;;;;;;2.92;46.16;100286.84;4906729;28;20060;-74
2023/03/02 06:31:53;;;;;;;7.35;3.50;;;;;;;3.10;48.69;100290.53;4912539;28;20053;-70
2023/03/02 06:34:23;;;;;;;5.53;2.90;;;;;;;3.15;47.48;100299.22;4909855;28;20106;-71
2023/03/02 06:36:54;;;;;;;10.32;5.13;;;;;;;2.93;46.68;100293.72;4910663;28;20115;-66
2023/03/02 06:39:25;;;;;;;7.70;4.20;;;;;;;2.47;48.52;100290.44;4911166;28;20083;-72
2023/03/02 06:41:56;;;;;;;9.13;4.93;;;;;;;1.51;50.12;100295.47;4909115;28;20498;-75
2023/03/02 06:44:26;;;;;;;9.85;5.25;;;;;;;0.86;51.31;100302.63;4914463;28;20060;-72
2023/03/02 06:46:58;;;;;;;5.43;3.67;;;;;;;0.26;53.93;100303.72;4905975;28;20063;-68
2023/03/02 06:49:29;;;;;;;5.88;3.90;;;;;;;-0.18;54.33;100308.53;4904218;28;20060;-69
2023/03/02 06:51:59;;;;;;;5.93;3.42;;;;;;;-0.64;55.54;100308.94;4908555;28;20063;-69
2023/03/02 06:54:30;;;;;;;5.07;2.85;;;;;;;-0.96;55.02;100317.38;4906222;28;20063;-71
2023/03/02 06:57:00;;;;;;;6.95;3.17;;;;;;;-1.36;56.78;100315.25;4906488;28;20139;-67
2023/03/02 06:59:31;;;;;;;6.25;3.47;;;;;;;-1.52;57.04;100324.16;4911471;28;20395;-71
2023/03/02 07:02:04;;;;;;;5.47;3.10;;;;;;;-1.76;57.10;100319.06;4909243;28;20048;-68
2023/03/02 07:04:35;;;;;;;4.47;2.72;;;;;;;-2.05;57.46;100325.72;4904666;28;20475;-70
2023/03/02 07:07:06;;;;;;;6.32;2.92;;;;;;;-2.34;57.40;100317.88;4909608;28;20489;-75
2023/03/02 07:09:36;;;;;;;4.85;3.08;;;;;;;-2.52;57.61;100327.44;4903138;28;20044;-71
2023/03/02 07:12:07;;;;;;;5.45;3.78;;;;;;;-2.63;58.46;100340.69;4905031;28;20072;-69
2023/03/02 07:14:38;;;;;;;6.65;3.42;;;;;;;-2.87;58.70;100335.53;4894795;28;20057;-68
2023/03/02 07:17:10;;;;;;;8.13;3.47;;;;;;;-2.98;59.26;100335.91;4905819;28;20794;-71
2023/03/02 07:19:41;;;;;;;9.93;3.70;;;;;;;-3.17;59.33;100337.75;4904303;28;20072;-67
2023/03/02 07:22:12;;;;;;;5.10;3.17;;;;;;;-3.41;59.86;100334.22;4902134;28;20063;-73
2023/03/02 07:24:42;;;;;;;6.72;3.70;;;;;;;-3.34;60.34;100356.66;4903551;28;20067;-70
2023/03/02 07:27:13;;;;;;;8.18;3.85;;;;;;;-3.42;60.54;100352.88;4902635;28;20169;-70
2023/03/02 07:29:44;;;;;;;4.07;2.92;;;;;;;-3.50;60.43;100358.53;4903810;28;20114;-70
2023/03/02 07:32:16;;;;;;;5.05;3.30;;;;;;;-3.64;60.52;100352.00;4903917;28;20056;-65
2023/03/02 07:34:46;;;;;;;4.75;3.58;;;;;;;-3.67;60.51;100366.31;4909992;28;20672;-67
2023/03/02 07:37:17;;;;;;;7.25;4.05;;;;;;;-3.75;60.58;100364.31;4903278;28;20084;-69
2023/03/02 07:39:49;;;;;;;4.90;2.92;;;;;;;-4.15;60.18;100326.00;4900776;28;20054;-68
2023/03/02 07:42:19;;;;;;;6.72;3.63;;;;;;;-3.90;60.33;100369.63;4907347;28;20147;-65
2023/03/02 07:44:52;;;;;;;5.45;3.60;;;;;;;-3.93;60.03;100379.72;4906792;28;20454;-66
2023/03/02 07:47:24;;;;;;;6.00;2.97;;;;;;;-4.05;60.21;100368.97;4907692;28;20125;-71
2023/03/02 07:49:54;;;;;;;6.78;3.10;;;;;;;-4.12;59.28;100382.25;4911460;28;20056;-70
2023/03/02 07:52:25;;;;;;;6.43;3.08;;;;;;;-4.29;59.43;100373.88;4917662;28;20147;-69
2023/03/02 07:55:10;;;;;;;7.32;3.25;;;;;;;-4.35;59.24;100384.66;4887170;28;20177;-69
2023/03/02 07:57:41;;;;;;;5.38;3.20;;;;;;;-5.08;59.34;100274.22;4907392;28;20139;-66
2023/03/02 08:00:14;;;;;;;4.82;3.35;;;;;;;-4.40;59.42;100387.81;4902317;28;20053;-70
2023/03/02 08:02:47;;;;;;;6.55;3.35;;;;;;;-4.45;59.45;100391.81;4903265;28;20442;-66
2023/03/02 08:05:18;;;;;;;5.65;3.47;;;;;;;-4.49;59.19;100395.94;4901945;28;20064;-73
2023/03/02 08:07:49;;;;;;;6.63;3.28;;;;;;;-4.58;59.05;100406.56;4906546;28;20072;-71
2023/03/02 08:10:19;;;;;;;5.95;3.88;;;;;;;-4.63;58.75;100402.06;4906386;28;20494;-69
2023/03/02 08:12:50;;;;;;;9.15;4.53;;;;;;;-4.61;59.34;100400.47;4916844;28;20079;-68
2023/03/02 08:15:21;;;;;;;8.82;4.68;;;;;;;-4.69;58.58;100411.94;4917075;28;20048;-71
2023/03/02 08:18:02;;;;;;;9.70;4.93;;;;;;;-4.71;58.61;100418.69;4906010;28;20064;-72
2023/03/02 08:20:33;;;;;;;5.82;3.75;;;;;;;-4.73;58.62;100427.91;4927341;28;20749;-71
2023/03/02 08:23:04;;;;;;;8.88;3.95;;;;;;;-4.87;57.93;100410.28;4906478;28;20052;-71
2023/03/02 08:25:43;;;;;;;6.32;3.88;;;;;;;-5.01;57.82;100386.69;4893624;28;20947;-66
2023/03/02 08:28:14;;;;;;;8.70;4.18;;;;;;;-4.83;57.16;100435.13;4905765;28;20063;-72
2023/03/02 08:30:45;;;;;;;6.82;3.60;;;;;;;-4.88;57.24;100426.38;4899242;28;20169;-74
2023/03/02 08:33:17;;;;;;;9.77;4.35;;;;;;;-4.94;56.46;100433.75;4901394;28;20056;-71
2023/03/02 08:35:56;;;;;;;14.77;7.45;;;;;;;-4.96;56.18;100442.13;4906103;28;20061;-74
2023/03/02 08:38:28;;;;;;;26.95;12.88;;;;;;;-5.51;56.07;100358.78;4899740;28;20129;-72
2023/03/02 08:44:38;;;;;;;21.48;10.10;;;;;;;-5.18;56.44;100445.28;4884509;28;20057;-71
2023/03/02 08:47:09;;;;;;;32.38;13.77;;;;;;;-5.21;56.37;100462.16;4907400;28;20046;-73
2023/03/02 08:49:42;;;;;;;28.05;12.18;;;;;;;-5.22;56.38;100454.44;4909205;28;20786;-69
2023/03/02 08:52:17;;;;;;;23.95;10.98;;;;;;;-5.35;56.07;100462.25;4904711;28;20716;-74
2023/03/02 08:54:47;;;;;;;26.90;11.20;;;;;;;-5.44;56.42;100463.56;4904594;28;21322;-72
2023/03/02 08:57:18;;;;;;;30.30;12.85;;;;;;;-5.54;56.58;100473.16;4901969;28;20542;-69
2023/03/02 08:59:51;;;;;;;22.38;10.05;;;;;;;-5.65;56.18;100473.50;4903698;28;20058;-72
2023/03/02 09:02:21;;;;;;;9.02;4.80;;;;;;;-6.05;55.89;100424.78;4901627;28;20040;-74
2023/03/02 09:04:59;;;;;;;8.70;5.00;;;;;;;-5.95;56.98;100477.88;4906685;28;20048;-71
2023/03/02 09:07:40;;;;;;;10.23;5.65;;;;;;;-6.11;58.17;100488.94;4884281;28;20053;-72
2023/03/02 09:10:16;;;;;;;10.70;5.95;;;;;;;-6.24;59.33;100489.06;4909869;28;20059;-72
2023/03/02 09:12:46;;;;;;;74.15;38.55;;;;;;;-6.38;60.81;100489.97;4912058;28;20048;-70
2023/03/02 09:15:17;;;;;;;37.33;22.30;;;;;;;-6.67;62.02;100490.88;4905209;28;20049;-69
2023/03/02 09:17:47;;;;;;;18.48;9.85;;;;;;;-6.84;63.24;100502.63;4909604;28;20057;-72
2023/03/02 09:20:20;;;;;;;14.48;8.88;;;;;;;-6.98;64.06;100497.66;4906514;28;20057;-69
2023/03/02 09:22:53;;;;;;;12.85;7.47;;;;;;;-7.05;65.00;100498.09;4906424;28;21179;-72
2023/03/02 09:25:24;;;;;;;13.20;7.47;;;;;;;-7.06;65.53;100498.88;4912504;28;20058;-72
2023/03/02 09:27:54;;;;;;;11.00;5.70;;;;;;;-7.13;65.71;100503.53;4911258;28;20052;-68
2023/03/02 09:30:25;;;;;;;11.68;6.90;;;;;;;-7.15;66.15;100498.34;4905661;28;20498;-71
2023/03/02 09:32:55;;;;;;;10.18;6.38;;;;;;;-7.25;66.35;100503.69;4903378;28;20476;-70
2023/03/02 09:35:28;;;;;;;14.73;8.75;;;;;;;-7.39;66.33;100500.31;4910535;28;20101;-70
2023/03/02 09:37:59;;;;;;;19.05;11.85;;;;;;;-7.58;66.66;100493.28;4900295;28;20054;-70
2023/03/02 09:40:48;;;;;;;28.73;13.38;;;;;;;-7.93;67.68;100494.56;4905140;28;20051;-69
2023/03/02 09:43:35;;;;;;;11.27;6.63;;;;;;;-8.29;68.51;100504.19;4887186;28;20608;-68
2023/03/02 09:46:18;;;;;;;10.07;5.65;;;;;;;-8.42;69.47;100513.50;4900504;28;20080;-69
2023/03/02 09:49:07;;;;;;;8.85;5.50;;;;;;;-8.47;70.24;100513.22;4897668;28;20103;-70
2023/03/02 09:51:47;;;;;;;12.27;5.53;;;;;;;-8.53;70.70;100492.56;4912193;28;20056;-68
2023/03/02 09:54:22;;;;;;;19.67;9.88;;;;;;;-8.58;70.73;100483.78;4904837;28;20052;-68
2023/03/02 09:57:00;;;;;;;26.75;12.93;;;;;;;-8.48;71.12;100501.34;4908694;28;20460;-68
2023/03/02 09:59:39;;;;;;;19.63;10.77;;;;;;;-8.45;71.08;100511.66;4898919;28;20048;-68
2023/03/02 10:02:29;;;;;;;19.48;9.15;;;;;;;-8.59;71.41;100476.97;4902572;28;20064;-68
2023/03/02 10:05:01;;;;;;;;;;;;;;;-8.82;71.61;100473.84;4894104;28;20056;-68
2023/03/02 10:07:36;;;;;;;12.35;5.25;;;;;;;-8.86;71.90;100502.28;4911444;28;20456;-68
2023/03/02 10:10:27;;;;;;;9.18;5.32;;;;;;;-8.94;72.44;100503.44;4905506;28;20082;-68
2023/03/02 10:13:11;;;;;;;11.90;6.78;;;;;;;-8.87;72.97;100505.59;4812638;28;20048;-69
2023/03/02 10:15:48;;;;;;;14.93;8.60;;;;;;;-8.97;73.06;100509.19;4816978;28;20139;-68
2023/03/02 10:18:24;;;;;;;26.33;10.93;;;;;;;-9.02;73.13;100512.19;4822699;28;21921;-68
2023/03/02 10:21:02;;;;;;;101.85;34.17;;;;;;;-9.18;73.15;100503.59;4811341;28;20058;-68
2023/03/02 10:23:41;;;;;;;30.67;12.63;;;;;;;-9.42;74.05;100501.97;4817634;28;20133;-68
2023/03/02 10:26:22;;;;;;;12.10;6.65;;;;;;;-9.63;75.42;100509.88;4818335;28;20445;-68
2023/03/02 10:29:01;;;;;;;6.95;4.80;;;;;;;-9.74;76.20;100505.72;4818841;28;20109;-68
2023/03/02 10:31:34;;;;;;;8.13;4.72;;;;;;;-9.80;76.80;100530.59;4818906;28;20057;-68
2023/03/02 10:34:04;;;;;;;8.13;4.72;;;;;;;-9.74;77.27;100533.53;4826619;28;20056;-68
2023/03/02 10:36:40;;;;;;;9.98;4.50;;;;;;;-9.95;77.40;100497.56;4827567;28;20427;-68
2023/03/02 10:39:15;;;;;;;8.82;4.95;;;;;;;-9.80;77.84;100523.00;4818567;28;20112;-68
2023/03/02 10:41:50;;;;;;;10.95;5.20;;;;;;;-9.74;77.78;100525.94;4824198;28;20089;-67
2023/03/02 10:44:29;;;;;;;9.25;4.70;;;;;;;-9.69;77.92;100532.19;4818102;28;20058;-69
2023/03/02 10:47:00;;;;;;;8.73;4.82;;;;;;;-9.70;77.92;100539.69;4801309;28;20149;-69
2023/03/02 10:49:35;;;;;;;10.48;5.50;;;;;;;-9.68;77.88;100544.09;4841503;28;20517;-69
2023/03/02 10:52:07;;;;;;;10.55;4.80;;;;;;;-9.72;77.63;100532.00;4909440;28;20054;-69
2023/03/02 10:54:46;;;;;;;9.73;5.28;;;;;;;-9.73;77.43;100540.38;4904287;28;20049;-69
2023/03/02 10:57:35;;;;;;;11.48;5.30;;;;;;;-9.46;78.14;100543.91;4909456;28;20048;-70
2023/03/02 11:00:17;;;;;;;54.15;15.00;;;;;;;-9.40;77.64;100523.19;4896160;28;20051;-69
2023/03/02 11:02:51;;;;;;;241.27;55.92;;;;;;;-9.32;77.52;100529.63;4895338;28;20066;-69
2023/03/02 11:05:30;;;;;;;68.72;19.00;;;;;;;-9.26;76.53;100550.31;4907551;28;20139;-70
2023/03/02 11:08:02;;;;;;;14.35;7.30;;;;;;;-9.37;76.00;100541.09;4895046;28;20067;-69
2023/03/02 11:10:37;;;;;;;13.13;4.93;;;;;;;-9.40;75.54;100551.03;4903996;28;20147;-70
2023/03/02 11:13:19;;;;;;;28.17;13.27;;;;;;;-9.62;74.91;100549.56;4904475;28;20048;-69
2023/03/02 11:15:51;;;;;;;39.55;20.13;;;;;;;-10.17;75.06;100480.03;4899878;28;20141;-70
2023/03/02 11:18:27;;;;;;;25.17;14.45;;;;;;;-9.86;75.34;100547.84;4906629;28;20056;-69
2023/03/02 11:21:03;;;;;;;24.13;13.75;;;;;;;-9.73;76.07;100555.53;4904201;28;20066;-68
2023/03/02 11:23:50;;;;;;;15.63;8.52;;;;;;;-9.71;75.84;100548.91;4911777;28;20056;-70
2023/03/02 11:26:26;;;;;;;12.38;6.70;;;;;;;-9.72;75.78;100537.06;4899909;28;20057;-71
2023/03/02 11:29:06;;;;;;;11.80;6.55;;;;;;;-9.47;76.05;100551.38;4903774;28;20052;-70
2023/03/02 11:31:48;;;;;;;83.55;22.25;;;;;;;-9.30;76.24;100542.41;4898849;28;20056;-70
2023/03/02 11:34:33;;;;;;;355.52;71.25;;;;;;;-9.15;75.99;100538.34;4899665;28;20053;-68
2023/03/02 11:37:16;;;;;;;210.27;50.38;;;;;;;-9.08;75.29;100555.72;4893829;28;20390;-70
2023/03/02 11:40:19;;;;;;;58.83;15.40;;;;;;;-9.17;74.57;100545.84;4898671;28;20572;-68
2023/03/02 11:42:53;;;;;;;64.10;21.23;;;;;;;-9.41;73.98;100546.72;4887324;28;20060;-69
2023/03/02 11:45:27;;;;;;;24.48;10.15;;;;;;;-9.29;74.05;100559.31;4901118;28;21266;-69
2023/03/02 11:48:07;;;;;;;16.70;7.03;;;;;;;-9.40;73.16;100561.16;4903596;28;20135;-68
2023/03/02 11:50:46;;;;;;;63.75;21.80;;;;;;;-9.53;73.04;100563.59;4897797;28;20415;-66
2023/03/02 11:53:24;;;;;;;137.18;46.53;;;;;;;-9.66;73.27;100562.78;4907264;28;20985;-66
2023/03/02 11:55:54;;;;;;;103.25;37.80;;;;;;;-9.65;73.77;100563.66;4892266;28;20076;-66
2023/03/02 11:58:35;;;;;;;44.25;17.83;;;;;;;-9.64;73.49;100561.22;4908372;28;20420;-66
2023/03/02 12:01:11;;;;;;;19.48;9.13;;;;;;;-9.74;73.08;100538.59;4910701;28;20147;-67